createdAt,value
2023-04-27T00:00:25.168Z,1.0
2023-04-27T00:05:25.815Z,1.0
2023-04-27T00:08:13.516Z,1.1
2023-04-27T00:13:13.901Z,0.7
2023-04-27T00:18:14.331Z,0.9
2023-04-27T00:23:14.778Z,0.9
2023-04-27T00:28:15.218Z,0.8
2023-04-27T00:33:15.707Z,0.9
2023-04-27T00:38:16.109Z,1.1
2023-04-27T00:43:16.677Z,1.0
2023-04-27T00:48:17.088Z,1.1
2023-04-27T00:53:17.629Z,0.8
2023-04-27T00:58:18.067Z,1.0
2023-04-27T01:03:18.797Z,1.0
2023-04-27T01:08:19.070Z,0.9
2023-04-27T01:13:19.528Z,0.9
2023-04-27T01:18:20.119Z,0.8
2023-04-27T01:23:20.543Z,1.3
2023-04-27T01:28:20.901Z,1.0
2023-04-27T01:33:21.492Z,1.0
2023-04-27T01:38:21.906Z,0.8
2023-04-27T01:43:22.352Z,1.1
2023-04-27T01:48:22.740Z,0.7
2023-04-27T01:53:23.269Z,0.9
2023-04-27T01:58:23.617Z,0.9
2023-04-27T02:03:24.192Z,0.9
2023-04-27T02:08:24.601Z,0.8
2023-04-27T02:13:24.898Z,1.0
2023-04-27T02:18:25.415Z,0.8
2023-04-27T02:23:25.838Z,1.0
2023-04-27T02:28:26.280Z,0.7
2023-04-27T02:33:26.622Z,0.8
2023-04-27T02:38:27.112Z,0.8
2023-04-27T02:43:27.535Z,0.9
2023-04-27T02:48:27.869Z,1.1
2023-04-27T02:53:28.631Z,0.8
2023-04-27T02:58:28.685Z,0.8
2023-04-27T03:03:29.454Z,0.7
2023-04-27T03:08:29.718Z,0.7
2023-04-27T03:13:29.970Z,0.8
2023-04-27T03:18:30.551Z,0.7
2023-04-27T03:23:30.815Z,0.6
2023-04-27T03:28:31.239Z,1.0
2023-04-27T03:33:31.671Z,0.7
2023-04-27T03:38:32.133Z,0.8
2023-04-27T03:43:32.628Z,1.1
2023-04-27T03:48:32.941Z,0.9
2023-04-27T03:53:33.778Z,0.8
2023-04-27T03:58:33.870Z,0.7
2023-04-27T04:03:34.468Z,0.5
2023-04-27T04:08:34.877Z,0.6
2023-04-27T04:13:35.279Z,1.0
2023-04-27T04:18:35.662Z,0.8
2023-04-27T04:23:36.180Z,0.9
2023-04-27T04:28:36.660Z,0.8
2023-04-27T04:33:37.174Z,0.7
2023-04-27T04:38:37.787Z,0.8
2023-04-27T04:43:38.056Z,0.7
2023-04-27T04:48:38.550Z,1.0
2023-04-27T04:53:38.958Z,0.8
2023-04-27T04:58:39.380Z,1.0
2023-04-27T05:03:40.024Z,0.8
2023-04-27T05:08:40.337Z,1.0
2023-04-27T05:13:40.612Z,0.9
2023-04-27T05:18:41.050Z,1.1
2023-04-27T05:23:41.645Z,1.0
2023-04-27T05:28:41.933Z,0.8
2023-04-27T05:33:42.562Z,0.7
2023-04-27T05:38:42.929Z,0.7
2023-04-27T05:43:43.325Z,0.7
2023-04-27T05:48:43.749Z,0.9
2023-04-27T05:53:44.477Z,0.7
2023-04-27T05:58:44.608Z,1.0
2023-04-27T06:03:45.389Z,1.3
2023-04-27T06:08:45.654Z,0.9
2023-04-27T06:13:45.978Z,1.2
2023-04-27T06:18:46.424Z,1.2
2023-04-27T06:23:46.951Z,1.0
2023-04-27T06:28:47.301Z,0.8
2023-04-27T06:33:47.735Z,0.9
2023-04-27T06:38:48.240Z,1.0
2023-04-27T06:43:48.616Z,1.1
2023-04-27T06:48:49.063Z,0.9
2023-04-27T06:53:49.984Z,1.1
2023-04-27T06:58:50.083Z,0.6
2023-04-27T07:03:50.611Z,1.0
2023-04-27T07:08:50.877Z,1.3
2023-04-27T07:13:51.549Z,1.2
2023-04-27T07:18:51.723Z,0.9
2023-04-27T07:23:54.183Z,1.0
2023-04-27T07:28:52.694Z,1.3
2023-04-27T07:33:53.003Z,1.1
2023-04-27T07:38:53.642Z,1.0
2023-04-27T07:43:53.926Z,1.3
2023-04-27T07:48:54.415Z,1.2
2023-04-27T07:53:55.378Z,1.1
2023-04-27T07:58:55.230Z,1.0
2023-04-27T08:03:56.004Z,1.1
2023-04-27T08:08:56.076Z,1.4
2023-04-27T08:13:56.652Z,1.3
2023-04-27T08:18:58.597Z,1.2
2023-04-27T08:23:57.641Z,1.5
2023-04-27T08:28:57.971Z,1.2
2023-04-27T08:33:58.548Z,1.3
2023-04-27T08:38:59.040Z,1.4
2023-04-27T08:43:59.732Z,1.2
2023-04-27T08:48:59.846Z,1.2
2023-04-27T08:54:00.334Z,1.2
2023-04-27T08:59:00.785Z,1.3
2023-04-27T09:04:01.540Z,1.6
2023-04-27T09:09:01.903Z,1.3
2023-04-27T09:14:02.056Z,1.1
2023-04-27T09:19:02.625Z,1.3
2023-04-27T09:24:03.055Z,1.4
2023-04-27T09:29:03.485Z,1.6
2023-04-27T09:34:04.094Z,1.2
2023-04-27T09:39:04.488Z,1.4
2023-04-27T09:44:04.891Z,1.3
2023-04-27T09:49:05.411Z,1.3
2023-04-27T09:54:06.159Z,1.6
2023-04-27T09:59:06.376Z,1.5
2023-04-27T10:04:06.892Z,1.6
2023-04-27T10:09:07.369Z,1.5
2023-04-27T10:14:07.662Z,1.7
2023-04-27T10:19:08.181Z,1.6
2023-04-27T10:24:08.788Z,1.6
2023-04-27T10:29:09.274Z,1.5
2023-04-27T10:34:09.682Z,1.3
2023-04-27T10:39:10.152Z,1.6
2023-04-27T10:44:10.588Z,1.4
2023-04-27T10:49:11.186Z,1.3
2023-04-27T10:54:11.751Z,1.4
2023-04-27T10:59:12.223Z,1.6
2023-04-27T11:04:12.939Z,1.4
2023-04-27T11:09:13.337Z,1.3
2023-04-27T11:14:13.792Z,1.6
2023-04-27T11:19:14.205Z,1.6
2023-04-27T11:24:15.600Z,1.4
2023-04-27T11:29:15.234Z,1.5
2023-04-27T11:34:16.297Z,1.5
2023-04-27T11:39:16.320Z,1.7
2023-04-27T11:44:16.569Z,1.5
2023-04-27T11:49:17.052Z,1.3
2023-04-27T11:54:17.690Z,1.5
2023-04-27T11:59:18.085Z,1.7
2023-04-27T12:04:19.032Z,1.4
2023-04-27T12:09:19.185Z,1.4
2023-04-27T12:14:19.664Z,1.5
2023-04-27T12:19:20.177Z,1.5
2023-04-27T12:24:20.809Z,1.5
2023-04-27T12:29:21.195Z,1.5
2023-04-27T12:34:21.886Z,1.4
2023-04-27T12:39:22.467Z,1.5
2023-04-27T12:44:22.838Z,1.6
2023-04-27T12:49:23.433Z,1.2
2023-04-27T12:54:24.279Z,1.4
2023-04-27T12:59:24.427Z,1.2
2023-04-27T13:04:25.149Z,1.3
2023-04-27T13:09:25.669Z,1.0
2023-04-27T13:14:26.048Z,1.1
2023-04-27T13:19:26.668Z,0.9
2023-04-27T13:24:27.084Z,0.9
2023-04-27T13:29:27.643Z,1.1
2023-04-27T13:34:28.115Z,1.1
2023-04-27T13:39:28.800Z,1.0
2023-04-27T13:44:29.371Z,0.9
2023-04-27T13:49:29.804Z,0.8
2023-04-27T13:54:30.872Z,0.7
2023-04-27T13:59:30.951Z,0.5
2023-04-27T14:04:31.625Z,0.6
2023-04-27T14:09:32.049Z,0.8
2023-04-27T14:14:32.598Z,0.6
2023-04-27T14:19:33.147Z,0.7
2023-04-27T14:24:33.767Z,0.5
2023-04-27T14:29:34.221Z,0.7
2023-04-27T14:34:34.677Z,0.6
2023-04-27T14:39:35.441Z,0.5
2023-04-27T14:44:35.830Z,0.5
2023-04-27T14:49:36.415Z,0.6
2023-04-27T14:54:37.435Z,0.6
2023-04-27T14:59:37.369Z,0.7
2023-04-27T15:04:37.978Z,0.6
2023-04-27T15:09:38.725Z,0.5
2023-04-27T15:14:38.929Z,0.5
2023-04-27T15:19:39.566Z,0.6
2023-04-27T15:24:40.154Z,0.8
2023-04-27T15:29:40.646Z,0.7
2023-04-27T15:34:41.105Z,0.7
2023-04-27T15:39:41.807Z,0.7
2023-04-27T15:44:42.180Z,0.7
2023-04-27T15:49:56.157Z,0.8
2023-04-27T15:54:43.665Z,0.8
2023-04-27T15:59:43.760Z,0.8
2023-04-27T16:04:44.365Z,0.7
2023-04-27T16:09:44.948Z,0.7
2023-04-27T16:14:45.505Z,0.8
2023-04-27T16:19:45.972Z,0.8
2023-04-27T16:24:46.644Z,0.9
2023-04-27T16:29:47.004Z,0.7
2023-04-27T16:34:47.643Z,0.8
2023-04-27T16:39:48.211Z,0.8
2023-04-27T16:44:48.763Z,0.8
2023-04-27T16:49:49.296Z,0.6
2023-04-27T16:54:50.395Z,0.8
2023-04-27T16:59:50.320Z,0.7
2023-04-27T17:04:50.847Z,0.9
2023-04-27T17:09:51.526Z,0.7
2023-04-27T17:14:51.965Z,0.7
2023-04-27T17:19:52.563Z,0.7
2023-04-27T17:24:53.103Z,0.9
2023-04-27T17:29:53.665Z,0.7
2023-04-27T17:34:54.259Z,0.8
2023-04-27T17:39:54.860Z,0.8
2023-04-27T17:44:55.354Z,0.6
2023-04-27T17:49:55.845Z,0.8
2023-04-27T17:54:56.852Z,0.7
2023-04-27T17:59:56.984Z,0.8
2023-04-27T18:04:57.656Z,0.7
2023-04-27T18:09:58.234Z,0.7
2023-04-27T18:14:59.658Z,0.7
2023-04-27T18:20:08.060Z,0.9
2023-04-27T18:24:59.962Z,0.6
2023-04-27T18:30:00.429Z,0.7
2023-04-27T18:35:01.023Z,0.6
2023-04-27T18:40:01.747Z,0.8
2023-04-27T18:45:02.160Z,0.7
2023-04-27T18:50:02.739Z,0.8
2023-04-27T18:55:03.912Z,0.8
2023-04-27T19:00:03.832Z,0.7
2023-04-27T19:05:12.402Z,0.8
2023-04-27T19:10:05.052Z,0.6
2023-04-27T19:15:05.509Z,0.9
2023-04-27T19:20:06.070Z,0.6
2023-04-27T19:25:06.769Z,0.6
2023-04-27T19:30:07.168Z,0.7
2023-04-27T19:35:08.825Z,0.6
2023-04-27T19:40:08.524Z,0.7
2023-04-27T19:45:08.803Z,0.5
2023-04-27T19:50:09.511Z,0.6
2023-04-27T19:55:10.570Z,0.6
2023-04-27T20:00:10.509Z,0.6
2023-04-27T20:05:11.438Z,0.7
2023-04-27T20:10:11.793Z,0.5
2023-04-27T20:15:12.191Z,0.5
2023-04-27T20:20:12.798Z,0.4
2023-04-27T20:25:13.446Z,0.4
2023-04-27T20:30:13.897Z,0.6
2023-04-27T20:35:14.520Z,0.4
2023-04-27T20:40:15.075Z,0.4
2023-04-27T20:45:15.626Z,0.5
2023-04-27T20:50:16.143Z,0.6
2023-04-27T20:55:16.934Z,0.4
2023-04-27T21:00:17.325Z,0.6
2023-04-27T21:05:17.788Z,0.5
2023-04-27T21:10:18.713Z,0.6
2023-04-27T21:15:18.836Z,0.5
2023-04-27T21:20:19.512Z,0.5
2023-04-27T21:25:22.255Z,0.6
2023-04-27T21:30:20.595Z,0.5
2023-04-27T21:35:21.096Z,0.4
2023-04-27T21:40:21.902Z,0.6
2023-04-27T21:45:22.228Z,0.6
2023-04-27T21:50:22.705Z,0.5
2023-04-27T21:55:23.538Z,0.5
2023-04-27T22:00:23.782Z,0.7
2023-04-27T22:05:24.365Z,0.6
2023-04-27T22:10:25.042Z,0.6
2023-04-27T22:15:25.504Z,0.5
2023-04-27T22:20:26.030Z,0.7
2023-04-27T22:25:26.703Z,0.5
2023-04-27T22:30:27.093Z,0.5
2023-04-27T22:35:28.182Z,0.6
2023-04-27T22:40:28.210Z,0.6
2023-04-27T22:45:28.798Z,0.6
2023-04-27T22:50:29.374Z,0.5
2023-04-27T22:55:30.173Z,0.5
2023-04-27T23:00:30.472Z,0.6
2023-04-27T23:05:30.934Z,0.6
2023-04-27T23:10:31.849Z,0.7
2023-04-27T23:15:31.988Z,0.6
2023-04-27T23:20:32.603Z,0.6
2023-04-27T23:25:33.138Z,0.6
2023-04-27T23:30:33.717Z,0.6
2023-04-27T23:35:34.230Z,0.5
2023-04-27T23:40:34.851Z,0.6
2023-04-27T23:45:35.509Z,0.5
2023-04-27T23:50:35.911Z,0.6
2023-04-27T23:55:36.946Z,0.7
